createdAt,value
2022-11-05T00:00:37.303Z,20.50
2022-11-05T00:03:24.582Z,23.50
2022-11-05T00:06:12.662Z,22.00
2022-11-05T00:08:59.800Z,22.00
2022-11-05T00:11:42.480Z,23.00
2022-11-05T00:14:24.886Z,23.00
2022-11-05T00:16:54.974Z,23.00
2022-11-05T00:19:23.363Z,23.00
2022-11-05T00:22:09.231Z,22.00
2022-11-05T00:25:10.087Z,23.75
2022-11-05T00:27:38.698Z,23.25
2022-11-05T00:30:09.337Z,20.50
2022-11-05T00:32:40.310Z,22.20
2022-11-05T00:35:09.664Z,23.00
2022-11-05T00:37:38.400Z,23.00
2022-11-05T00:40:07.990Z,21.80
2022-11-05T00:42:54.234Z,23.00
2022-11-05T00:45:22.842Z,23.25
2022-11-05T00:48:10.886Z,23.25
2022-11-05T00:50:39.335Z,23.00
2022-11-05T00:53:08.712Z,20.00
2022-11-05T00:55:39.187Z,21.40
2022-11-05T00:58:10.290Z,20.00
2022-11-05T01:00:40.736Z,20.00
2022-11-05T01:03:13.038Z,18.80
2022-11-05T01:05:43.368Z,20.00
2022-11-05T01:08:12.739Z,20.00
2022-11-05T01:10:42.252Z,21.20
2022-11-05T01:13:13.194Z,20.25
2022-11-05T01:15:42.246Z,18.60
2022-11-05T01:18:12.869Z,19.00
2022-11-05T01:20:41.604Z,21.20
2022-11-05T01:23:13.470Z,20.00
2022-11-05T01:25:42.362Z,18.20
2022-11-05T01:28:11.418Z,20.00
2022-11-05T01:30:40.170Z,16.40
2022-11-05T01:33:09.221Z,20.00
2022-11-05T01:35:40.270Z,19.80
2022-11-05T01:38:09.651Z,18.40
2022-11-05T01:40:38.169Z,17.40
2022-11-05T01:43:15.608Z,17.60
2022-11-05T01:45:45.826Z,16.40
2022-11-05T01:48:18.589Z,18.00
2022-11-05T01:50:54.739Z,17.40
2022-11-05T01:53:30.924Z,18.60
2022-11-05T01:56:04.371Z,16.20
2022-11-05T01:58:38.778Z,19.60
2022-11-05T02:01:07.390Z,20.20
2022-11-05T02:03:36.919Z,20.25
2022-11-05T02:06:09.473Z,20.00
2022-11-05T02:08:51.983Z,21.20
2022-11-05T02:11:21.347Z,22.25
2022-11-05T02:13:50.961Z,23.75
2022-11-05T02:16:36.253Z,21.25
2022-11-05T02:19:26.031Z,22.20
2022-11-05T02:22:24.141Z,22.50
2022-11-05T02:25:17.498Z,21.00
2022-11-05T02:28:08.833Z,23.00
2022-11-05T02:30:47.773Z,25.00
2022-11-05T02:33:31.131Z,26.75
2022-11-05T02:36:19.365Z,28.00
2022-11-05T02:39:00.743Z,28.75
2022-11-05T02:41:36.844Z,27.75
2022-11-05T02:44:20.204Z,30.75
2022-11-05T02:46:58.891Z,29.00
2022-11-05T02:49:41.233Z,28.25
2022-11-05T02:52:17.823Z,31.25
2022-11-05T02:54:55.268Z,32.75
2022-11-05T02:57:24.035Z,30.00
2022-11-05T03:00:01.727Z,30.50
2022-11-05T03:02:32.162Z,32.75
2022-11-05T03:05:01.354Z,33.25
2022-11-05T03:07:39.250Z,33.00
2022-11-05T03:10:40.646Z,33.75
2022-11-05T03:13:18.482Z,31.75
2022-11-05T03:15:57.940Z,34.25
2022-11-05T03:18:37.538Z,34.25
2022-11-05T03:21:10.991Z,34.00
2022-11-05T03:23:45.734Z,34.50
2022-11-05T03:26:19.682Z,32.00
2022-11-05T03:28:57.712Z,33.00
2022-11-05T03:31:28.434Z,32.00
2022-11-05T03:34:01.064Z,31.75
2022-11-05T03:36:33.546Z,31.00
2022-11-05T03:39:07.380Z,29.50
2022-11-05T03:41:39.562Z,27.50
2022-11-05T03:44:12.144Z,29.00
2022-11-05T03:46:45.424Z,29.00
2022-11-05T03:49:20.411Z,26.75
2022-11-05T03:51:54.691Z,28.75
2022-11-05T03:54:23.966Z,26.25
2022-11-05T03:57:02.435Z,28.00
2022-11-05T03:59:33.380Z,27.75
2022-11-05T04:02:04.289Z,27.75
2022-11-05T04:04:34.653Z,27.00
2022-11-05T04:07:20.634Z,27.00
2022-11-05T04:10:06.650Z,27.00
2022-11-05T04:12:52.258Z,28.00
2022-11-05T04:15:20.975Z,27.25
2022-11-05T04:17:48.338Z,25.25
2022-11-05T04:20:36.234Z,25.25
2022-11-05T04:23:24.624Z,27.00
2022-11-05T04:25:53.379Z,31.75
2022-11-05T04:28:41.859Z,29.50
2022-11-05T04:31:09.544Z,25.00
2022-11-05T04:33:38.020Z,26.50
2022-11-05T04:36:09.024Z,23.00
2022-11-05T04:38:37.460Z,23.50
2022-11-05T04:41:14.953Z,21.00
2022-11-05T04:43:43.789Z,24.00
2022-11-05T04:46:12.485Z,67.25
2022-11-05T04:48:41.032Z,24.75
2022-11-05T04:51:11.022Z,21.50
2022-11-05T04:53:39.455Z,22.20
2022-11-05T04:56:12.282Z,23.00
2022-11-05T04:58:41.640Z,21.80
2022-11-05T05:01:14.269Z,22.40
2022-11-05T05:03:42.803Z,24.25
2022-11-05T05:06:13.027Z,29.50
2022-11-05T05:08:41.526Z,23.00
2022-11-05T05:11:13.426Z,23.40
2022-11-05T05:13:41.850Z,23.75
2022-11-05T05:16:17.735Z,23.25
2022-11-05T05:18:46.647Z,21.00
2022-11-05T05:21:35.811Z,22.00
2022-11-05T05:24:04.265Z,22.00
2022-11-05T05:26:33.173Z,21.20
2022-11-05T05:29:01.625Z,22.25
2022-11-05T05:31:30.442Z,22.00
2022-11-05T05:33:58.950Z,24.75
2022-11-05T05:36:29.391Z,22.25
2022-11-05T05:38:57.851Z,23.00
2022-11-05T05:41:26.891Z,23.50
2022-11-05T05:43:55.466Z,21.00
2022-11-05T05:46:24.218Z,22.40
2022-11-05T05:48:53.711Z,22.50
2022-11-05T05:51:22.509Z,22.40
2022-11-05T05:53:53.807Z,20.40
2022-11-05T05:56:22.855Z,24.00
2022-11-05T05:58:51.838Z,21.25
2022-11-05T06:01:20.808Z,23.00
2022-11-05T06:03:50.388Z,24.00
2022-11-05T06:06:21.100Z,24.00
2022-11-05T06:08:49.993Z,24.75
2022-11-05T06:11:20.253Z,27.50
2022-11-05T06:13:48.806Z,27.75
2022-11-05T06:16:19.450Z,27.00
2022-11-05T06:18:48.205Z,25.25
2022-11-05T06:21:19.273Z,28.25
2022-11-05T06:23:48.397Z,24.75
2022-11-05T06:26:19.706Z,29.25
2022-11-05T06:28:48.208Z,27.75
2022-11-05T06:31:17.796Z,26.50
2022-11-05T06:33:47.287Z,28.75
2022-11-05T06:36:19.376Z,29.00
2022-11-05T06:38:48.120Z,28.25
2022-11-05T06:41:16.865Z,27.75
2022-11-05T06:43:46.583Z,27.00
2022-11-05T06:46:15.583Z,27.00
2022-11-05T06:48:44.013Z,28.00
2022-11-05T06:51:12.611Z,28.00
2022-11-05T06:53:41.143Z,27.25
2022-11-05T06:56:10.280Z,29.25
2022-11-05T06:58:38.764Z,28.00
2022-11-05T07:01:11.064Z,31.75
2022-11-05T07:03:40.284Z,28.00
2022-11-05T07:06:09.385Z,28.25
2022-11-05T07:08:39.135Z,29.00
2022-11-05T07:11:08.257Z,28.75
2022-11-05T07:13:36.598Z,27.25
2022-11-05T07:16:05.836Z,27.00
2022-11-05T07:18:35.891Z,27.00
2022-11-05T07:21:04.869Z,29.00
2022-11-05T07:23:33.548Z,29.00
2022-11-05T07:26:02.625Z,28.75
2022-11-05T07:28:31.078Z,24.00
2022-11-05T07:31:00.267Z,29.50
2022-11-05T07:33:33.706Z,28.75
2022-11-05T07:36:07.119Z,29.00
2022-11-05T07:38:35.535Z,29.50
2022-11-05T07:41:04.488Z,29.50
2022-11-05T07:43:32.929Z,29.00
2022-11-05T07:46:01.413Z,29.25
2022-11-05T07:48:30.141Z,29.25
2022-11-05T07:50:58.556Z,31.00
2022-11-05T07:53:29.393Z,29.25
2022-11-05T07:55:59.004Z,31.75
2022-11-05T07:58:27.805Z,30.25
2022-11-05T08:00:57.837Z,33.25
2022-11-05T08:03:26.738Z,32.00
2022-11-05T08:05:55.291Z,30.00
2022-11-05T08:08:24.509Z,28.75
2022-11-05T08:10:54.933Z,30.50
2022-11-05T08:13:23.965Z,29.25
2022-11-05T08:15:52.421Z,30.00
2022-11-05T08:18:21.298Z,31.75
2022-11-05T08:20:49.798Z,32.00
2022-11-05T08:23:18.591Z,31.25
2022-11-05T08:25:47.420Z,32.00
2022-11-05T08:28:17.701Z,32.50
2022-11-05T08:30:50.183Z,31.25
2022-11-05T08:33:19.232Z,29.00
2022-11-05T08:35:48.248Z,32.50
2022-11-05T08:38:19.044Z,33.25
2022-11-05T08:40:55.940Z,33.75
2022-11-05T08:43:27.236Z,31.25
2022-11-05T08:45:56.531Z,35.00
2022-11-05T08:48:25.520Z,31.50
2022-11-05T08:50:54.201Z,32.25
2022-11-05T08:53:22.986Z,32.00
2022-11-05T08:55:51.774Z,35.50
2022-11-05T08:58:20.873Z,34.75
2022-11-05T09:00:51.506Z,34.00
2022-11-05T09:03:20.403Z,34.00
2022-11-05T09:05:49.330Z,34.00
2022-11-05T09:08:20.040Z,32.25
2022-11-05T09:10:50.446Z,33.00
2022-11-05T09:13:20.471Z,32.50
2022-11-05T09:15:51.357Z,33.00
2022-11-05T09:18:21.567Z,33.00
2022-11-05T09:20:50.033Z,32.00
2022-11-05T09:23:19.016Z,29.75
2022-11-05T09:25:47.802Z,33.00
2022-11-05T09:28:20.353Z,34.50
2022-11-05T09:30:51.751Z,36.00
2022-11-05T09:33:24.055Z,39.00
2022-11-05T09:35:53.838Z,33.75
2022-11-05T09:38:22.824Z,32.25
2022-11-05T09:40:58.237Z,32.75
2022-11-05T09:43:32.231Z,30.00
2022-11-05T09:46:08.668Z,32.50
2022-11-05T09:48:40.442Z,32.00
2022-11-05T09:51:12.733Z,31.00
2022-11-05T09:53:42.462Z,31.25
2022-11-05T09:56:22.125Z,30.25
2022-11-05T09:58:56.082Z,31.25
2022-11-05T10:01:30.661Z,29.75
2022-11-05T10:04:03.520Z,29.00
2022-11-05T10:06:32.786Z,29.00
2022-11-05T10:09:07.480Z,29.25
2022-11-05T10:11:43.077Z,29.25
2022-11-05T10:14:18.091Z,32.00
2022-11-05T10:16:54.195Z,33.00
2022-11-05T10:19:25.384Z,31.25
2022-11-05T10:22:06.608Z,32.25
2022-11-05T10:24:37.172Z,32.00
2022-11-05T10:27:07.005Z,32.75
2022-11-05T10:29:36.975Z,34.50
2022-11-05T10:32:07.472Z,33.00
2022-11-05T10:34:41.024Z,32.00
2022-11-05T10:37:12.635Z,32.75
2022-11-05T10:39:41.443Z,29.00
2022-11-05T10:42:31.613Z,30.25
2022-11-05T10:45:29.024Z,30.50
2022-11-05T10:48:22.129Z,30.00
2022-11-05T10:50:51.844Z,29.75
2022-11-05T10:53:23.529Z,28.75
2022-11-05T10:55:54.039Z,26.25
2022-11-05T10:58:28.938Z,23.75
2022-11-05T11:01:11.653Z,22.00
2022-11-05T11:03:47.225Z,21.00
2022-11-05T11:06:24.906Z,18.00
2022-11-05T11:08:55.025Z,22.40
2022-11-05T11:11:30.014Z,23.75
2022-11-05T11:14:04.177Z,23.60
2022-11-05T11:16:39.327Z,22.50
2022-11-05T11:19:26.385Z,20.60
2022-11-05T11:22:17.851Z,22.60
2022-11-05T11:24:49.005Z,17.40
2022-11-05T11:27:23.242Z,22.00
2022-11-05T11:29:57.884Z,17.40
2022-11-05T11:32:32.765Z,20.80
2022-11-05T11:35:03.609Z,19.60
2022-11-05T11:37:37.244Z,21.40
2022-11-05T11:40:16.285Z,18.00
2022-11-05T11:42:48.424Z,21.40
2022-11-05T11:45:19.692Z,20.80
2022-11-05T11:47:50.805Z,14.80
2022-11-05T11:50:40.477Z,15.60
2022-11-05T11:53:35.534Z,11.80
2022-11-05T11:56:24.075Z,16.60
2022-11-05T11:58:54.973Z,14.20
2022-11-05T12:02:12.018Z,13.60
2022-11-05T12:05:06.918Z,14.00
2022-11-05T12:07:49.188Z,13.00
2022-11-05T12:10:44.739Z,11.80
2022-11-05T12:13:46.258Z,11.00
2022-11-05T12:16:26.270Z,19.20
2022-11-05T12:19:04.367Z,15.60
2022-11-05T12:21:59.177Z,17.40
2022-11-05T12:24:56.631Z,16.80
2022-11-05T12:27:45.316Z,12.00
2022-11-05T12:30:17.147Z,11.00
2022-11-05T12:33:05.308Z,19.00
2022-11-05T12:35:49.006Z,12.60
2022-11-05T12:38:33.210Z,12.00
2022-11-05T12:41:19.673Z,11.40
2022-11-05T12:44:17.016Z,9.60
2022-11-05T12:46:55.547Z,11.80
2022-11-05T12:49:48.665Z,14.80
2022-11-05T12:52:56.308Z,11.00
2022-11-05T12:55:28.545Z,11.80
2022-11-05T12:58:09.968Z,11.60
2022-11-05T13:00:44.112Z,15.20
2022-11-05T13:03:26.961Z,10.00
2022-11-05T13:06:06.076Z,11.00
2022-11-05T13:08:41.067Z,16.80
2022-11-05T13:11:21.015Z,12.80
2022-11-05T13:14:01.602Z,8.20
2022-11-05T13:16:35.842Z,10.00
2022-11-05T13:19:13.411Z,9.80
2022-11-05T13:21:44.062Z,11.20
2022-11-05T13:24:20.022Z,9.60
2022-11-05T13:26:55.179Z,11.60
2022-11-05T13:29:30.171Z,12.80
2022-11-05T13:32:05.962Z,11.60
2022-11-05T13:34:37.583Z,13.00
2022-11-05T13:37:27.260Z,7.80
2022-11-05T13:39:59.815Z,10.40
2022-11-05T13:42:48.019Z,11.60
2022-11-05T13:45:49.466Z,9.00
2022-11-05T13:48:50.567Z,11.60
2022-11-05T13:51:38.874Z,9.20
2022-11-05T13:54:47.094Z,7.80
2022-11-05T13:57:41.430Z,6.00
2022-11-05T14:00:17.556Z,11.00
2022-11-05T14:02:52.626Z,11.80
2022-11-05T14:05:28.876Z,11.00
2022-11-05T14:08:00.213Z,16.00
2022-11-05T14:10:37.109Z,14.20
2022-11-05T14:13:21.855Z,12.20
2022-11-05T14:15:58.922Z,10.40
2022-11-05T14:18:43.987Z,13.00
2022-11-05T14:21:32.533Z,9.80
2022-11-05T14:24:19.580Z,12.40
2022-11-05T14:27:28.885Z,10.60
2022-11-05T14:29:57.368Z,10.40
2022-11-05T14:32:29.612Z,12.80
2022-11-05T14:35:04.116Z,13.20
2022-11-05T14:37:39.101Z,14.80
2022-11-05T14:40:28.565Z,17.00
2022-11-05T14:43:00.319Z,12.60
2022-11-05T14:45:31.950Z,11.00
2022-11-05T14:48:03.332Z,13.40
2022-11-05T14:50:38.119Z,11.00
2022-11-05T14:53:27.732Z,12.20
2022-11-05T14:56:02.969Z,14.60
2022-11-05T14:58:37.107Z,16.00
2022-11-05T15:01:08.336Z,15.80
2022-11-05T15:04:00.371Z,14.20
2022-11-05T15:06:35.802Z,15.20
2022-11-05T15:09:20.422Z,13.20
2022-11-05T15:12:09.184Z,13.20
2022-11-05T15:14:49.019Z,11.40
2022-11-05T15:17:22.986Z,11.80
2022-11-05T15:19:53.536Z,12.60
2022-11-05T15:22:33.887Z,13.20
2022-11-05T15:25:05.015Z,13.00
2022-11-05T15:27:58.376Z,13.40
2022-11-05T15:30:27.383Z,10.40
2022-11-05T15:32:56.102Z,16.80
2022-11-05T15:35:27.898Z,14.20
2022-11-05T15:38:02.403Z,12.80
2022-11-05T15:40:32.620Z,17.00
2022-11-05T15:43:19.614Z,16.60
2022-11-05T15:46:03.306Z,19.40
2022-11-05T15:48:32.610Z,17.00
2022-11-05T15:51:01.851Z,19.80
2022-11-05T15:54:24.318Z,20.00
2022-11-05T15:56:52.851Z,21.00
2022-11-05T15:59:23.398Z,21.20
2022-11-05T16:01:56.491Z,20.20
2022-11-05T16:04:29.000Z,17.00
2022-11-05T16:07:02.107Z,21.80
2022-11-05T16:09:34.969Z,41.00
2022-11-05T16:12:31.049Z,23.20
2022-11-05T16:15:03.896Z,23.80
2022-11-05T16:17:45.658Z,24.40
2022-11-05T16:20:23.092Z,24.75
2022-11-05T16:22:54.071Z,24.75
2022-11-05T16:25:30.088Z,24.25
2022-11-05T16:27:59.888Z,25.75
2022-11-05T16:30:29.429Z,25.00
2022-11-05T16:33:05.252Z,25.80
2022-11-05T16:35:34.330Z,25.20
2022-11-05T16:38:03.973Z,27.25
2022-11-05T16:40:33.904Z,21.60
2022-11-05T16:43:17.490Z,25.75
2022-11-05T16:45:45.860Z,26.00
2022-11-05T16:48:15.601Z,26.00
2022-11-05T16:50:44.548Z,24.00
2022-11-05T16:53:14.818Z,27.00
2022-11-05T16:55:46.253Z,26.00
2022-11-05T16:58:21.051Z,27.00
2022-11-05T17:00:50.399Z,26.20
2022-11-05T17:03:19.967Z,22.50
2022-11-05T17:05:48.669Z,23.20
2022-11-05T17:08:17.332Z,23.40
2022-11-05T17:10:47.228Z,25.25
2022-11-05T17:13:16.770Z,23.60
2022-11-05T17:15:46.663Z,27.00
2022-11-05T17:18:18.967Z,28.75
2022-11-05T17:20:49.692Z,25.75
2022-11-05T17:23:21.537Z,1.00
2022-11-05T17:25:54.872Z,23.25
2022-11-05T17:28:23.857Z,15.75
2022-11-05T17:30:53.347Z,24.00
2022-11-05T17:33:23.792Z,23.80
2022-11-05T17:35:54.286Z,22.75
2022-11-05T17:38:24.216Z,21.20
2022-11-05T17:40:54.341Z,26.50
2022-11-05T17:43:23.380Z,35.00
2022-11-05T17:45:53.799Z,26.75
2022-11-05T17:48:22.545Z,23.75
2022-11-05T17:50:51.830Z,25.00
2022-11-05T17:53:20.819Z,24.00
2022-11-05T17:55:49.845Z,25.00
2022-11-05T17:58:19.974Z,26.25
2022-11-05T18:00:49.373Z,10.80
2022-11-05T18:03:18.189Z,20.40
2022-11-05T18:05:46.629Z,11.00
2022-11-05T18:08:15.327Z,22.80
2022-11-05T18:10:43.870Z,23.20
2022-11-05T18:13:13.255Z,26.00
2022-11-05T18:15:43.681Z,33.50
2022-11-05T18:18:12.655Z,22.80
2022-11-05T18:20:43.140Z,25.75
2022-11-05T18:23:12.117Z,25.20
2022-11-05T18:25:41.674Z,26.00
2022-11-05T18:28:10.960Z,22.80
2022-11-05T18:30:39.850Z,20.00
2022-11-05T18:33:10.271Z,25.00
2022-11-05T18:35:42.517Z,25.50
2022-11-05T18:38:11.966Z,27.00
2022-11-05T18:40:40.780Z,23.50
2022-11-05T18:43:10.027Z,27.50
2022-11-05T18:45:38.831Z,30.75
2022-11-05T18:48:09.628Z,23.25
2022-11-05T18:50:40.865Z,25.25
2022-11-05T18:53:09.850Z,23.00
2022-11-05T18:55:39.896Z,25.25
2022-11-05T18:58:08.833Z,26.50
2022-11-05T19:00:39.632Z,25.00
2022-11-05T19:03:09.853Z,24.75
2022-11-05T19:05:38.256Z,24.50
2022-11-05T19:08:06.954Z,25.00
2022-11-05T19:10:35.323Z,26.75
2022-11-05T19:13:03.935Z,24.75
2022-11-05T19:15:32.585Z,25.00
2022-11-05T19:18:01.397Z,26.50
2022-11-05T19:20:36.652Z,26.00
2022-11-05T19:23:06.539Z,27.50
2022-11-05T19:25:35.554Z,23.75
2022-11-05T19:28:04.472Z,25.00
2022-11-05T19:30:32.864Z,24.50
2022-11-05T19:33:01.533Z,22.50
2022-11-05T19:35:31.489Z,25.50
2022-11-05T19:38:01.596Z,25.50
2022-11-05T19:40:30.024Z,26.50
2022-11-05T19:42:59.135Z,27.00
2022-11-05T19:45:44.071Z,26.00
2022-11-05T19:48:19.017Z,23.00
2022-11-05T19:50:49.665Z,25.50
2022-11-05T19:53:18.629Z,29.50
2022-11-05T19:55:47.076Z,26.00
2022-11-05T19:58:15.815Z,27.00
2022-11-05T20:00:44.408Z,26.75
2022-11-05T20:03:13.675Z,26.00
2022-11-05T20:05:42.319Z,26.75
2022-11-05T20:08:12.822Z,27.50
2022-11-05T20:10:41.404Z,26.75
2022-11-05T20:13:13.128Z,27.00
2022-11-05T20:15:44.769Z,28.00
2022-11-05T20:18:13.982Z,27.25
2022-11-05T20:20:42.837Z,25.75
2022-11-05T20:23:13.889Z,43.67
2022-11-05T20:25:42.724Z,30.00
2022-11-05T20:28:11.599Z,30.00
2022-11-05T20:30:40.538Z,28.75
2022-11-05T20:33:09.296Z,29.50
2022-11-05T20:35:40.311Z,28.00
2022-11-05T20:38:09.677Z,28.75
2022-11-05T20:40:42.182Z,25.25
2022-11-05T20:43:10.863Z,28.25
2022-11-05T20:45:39.666Z,29.00
2022-11-05T20:48:08.426Z,31.00
2022-11-05T20:50:41.548Z,28.75
2022-11-05T20:53:11.124Z,30.25
2022-11-05T20:55:45.684Z,27.00
2022-11-05T20:58:16.608Z,28.50
2022-11-05T21:00:51.230Z,30.00
2022-11-05T21:03:20.681Z,30.75
2022-11-05T21:05:50.260Z,30.00
2022-11-05T21:08:20.114Z,30.50
2022-11-05T21:10:51.353Z,27.25
2022-11-05T21:13:20.640Z,29.25
2022-11-05T21:15:50.468Z,27.25
2022-11-05T21:18:20.182Z,26.25
2022-11-05T21:20:49.013Z,27.50
2022-11-05T21:23:17.921Z,26.00
2022-11-05T21:25:47.313Z,27.00
2022-11-05T21:28:17.469Z,31.00
2022-11-05T21:30:47.417Z,25.25
2022-11-05T21:33:18.032Z,26.50
2022-11-05T21:35:49.695Z,25.75
2022-11-05T21:38:18.847Z,26.00
2022-11-05T21:40:48.203Z,26.00
2022-11-05T21:43:18.435Z,28.50
2022-11-05T21:45:46.944Z,30.75
2022-11-05T21:48:16.089Z,28.75
2022-11-05T21:51:02.078Z,26.00
2022-11-05T21:53:48.380Z,26.00
2022-11-05T21:56:37.584Z,26.75
2022-11-05T21:59:25.234Z,26.00
2022-11-05T22:02:01.327Z,26.00
2022-11-05T22:04:30.602Z,25.25
2022-11-05T22:06:59.087Z,27.00
2022-11-05T22:09:28.661Z,24.75
2022-11-05T22:11:57.247Z,24.50
2022-11-05T22:14:27.748Z,24.25
2022-11-05T22:16:56.695Z,22.00
2022-11-05T22:19:26.307Z,27.00
2022-11-05T22:21:54.906Z,27.25
2022-11-05T22:24:24.372Z,24.00
2022-11-05T22:26:52.818Z,25.00
2022-11-05T22:29:21.479Z,25.25
2022-11-05T22:31:51.366Z,24.40
2022-11-05T22:34:20.484Z,25.20
2022-11-05T22:36:49.073Z,24.50
2022-11-05T22:39:18.348Z,21.40
2022-11-05T22:41:46.880Z,24.00
2022-11-05T22:44:16.682Z,24.25
2022-11-05T22:46:45.334Z,22.20
2022-11-05T22:49:15.372Z,22.50
2022-11-05T22:51:44.156Z,26.00
2022-11-05T22:54:13.531Z,24.75
2022-11-05T22:56:43.886Z,24.50
2022-11-05T22:59:14.917Z,25.75
2022-11-05T23:01:45.215Z,25.25
2022-11-05T23:04:16.227Z,24.25
2022-11-05T23:07:02.522Z,25.25
2022-11-05T23:09:51.023Z,26.75
2022-11-05T23:12:25.985Z,19.00
2022-11-05T23:14:56.278Z,24.75
2022-11-05T23:17:42.373Z,22.60
2022-11-05T23:20:34.446Z,25.50
2022-11-05T23:23:20.599Z,23.75
2022-11-05T23:25:49.478Z,23.00
2022-11-05T23:28:21.278Z,23.50
2022-11-05T23:31:07.329Z,24.25
2022-11-05T23:33:36.707Z,25.50
2022-11-05T23:36:24.845Z,24.00
2022-11-05T23:38:53.274Z,22.75
2022-11-05T23:41:39.435Z,22.50
2022-11-05T23:44:27.082Z,21.40
2022-11-05T23:47:13.054Z,23.00
2022-11-05T23:49:41.614Z,22.50
2022-11-05T23:52:12.047Z,22.50
2022-11-05T23:54:40.363Z,23.25
2022-11-05T23:57:09.195Z,24.00
2022-11-05T23:59:37.621Z,19.00
